createdAt,value
2022-12-27T00:02:17.981Z,63.80
2022-12-27T00:04:44.516Z,64.00
2022-12-27T00:07:10.976Z,63.90
2022-12-27T00:09:37.447Z,64.10
2022-12-27T00:12:03.928Z,63.80
2022-12-27T00:14:30.409Z,63.70
2022-12-27T00:16:56.882Z,63.50
2022-12-27T00:19:23.365Z,63.90
2022-12-27T00:21:49.841Z,63.90
2022-12-27T00:24:16.319Z,63.50
2022-12-27T00:26:42.795Z,63.20
2022-12-27T00:29:09.255Z,63.90
2022-12-27T00:31:35.826Z,63.80
2022-12-27T00:34:02.356Z,63.80
2022-12-27T00:36:28.837Z,63.80
2022-12-27T00:38:57.596Z,63.70
2022-12-27T00:41:24.073Z,63.80
2022-12-27T00:43:50.551Z,63.80
2022-12-27T00:46:17.040Z,63.40
2022-12-27T00:48:43.520Z,63.50
2022-12-27T00:51:10.012Z,63.60
2022-12-27T00:53:36.486Z,63.50
2022-12-27T00:56:02.960Z,63.70
2022-12-27T00:58:29.442Z,64.00
2022-12-27T01:00:56.059Z,64.00
2022-12-27T01:03:22.616Z,64.30
2022-12-27T01:05:49.140Z,63.80
2022-12-27T01:08:15.627Z,63.60
2022-12-27T01:10:42.120Z,63.60
2022-12-27T01:13:08.669Z,63.80
2022-12-27T01:15:35.159Z,63.30
2022-12-27T01:18:01.624Z,63.70
2022-12-27T01:20:28.115Z,63.10
2022-12-27T01:22:54.618Z,63.40
2022-12-27T01:25:21.113Z,63.30
2022-12-27T01:27:47.575Z,62.90
2022-12-27T01:30:14.087Z,63.20
2022-12-27T01:32:40.580Z,63.60
2022-12-27T01:35:07.070Z,63.10
2022-12-27T01:37:33.542Z,63.70
2022-12-27T01:40:00.011Z,63.10
2022-12-27T01:42:26.502Z,63.30
2022-12-27T01:44:52.987Z,63.20
2022-12-27T01:47:19.473Z,63.00
2022-12-27T01:49:45.952Z,63.40
2022-12-27T01:52:12.427Z,63.40
2022-12-27T01:54:38.926Z,62.90
2022-12-27T01:57:05.406Z,63.10
2022-12-27T01:59:31.865Z,63.20
2022-12-27T02:01:58.504Z,63.00
2022-12-27T02:04:25.227Z,63.00
2022-12-27T02:06:51.724Z,63.20
2022-12-27T02:09:18.192Z,63.40
2022-12-27T02:11:44.690Z,63.30
2022-12-27T02:14:11.173Z,62.90
2022-12-27T02:16:37.671Z,63.30
2022-12-27T02:19:04.162Z,63.30
2022-12-27T02:21:30.644Z,62.70
2022-12-27T02:23:57.673Z,63.00
2022-12-27T02:26:24.263Z,63.00
2022-12-27T02:28:50.737Z,62.90
2022-12-27T02:31:17.261Z,63.10
2022-12-27T02:33:45.684Z,63.20
2022-12-27T02:36:12.147Z,62.70
2022-12-27T02:38:38.625Z,62.70
2022-12-27T02:41:05.112Z,63.00
2022-12-27T02:43:31.605Z,62.90
2022-12-27T02:46:03.796Z,63.00
2022-12-27T02:48:30.290Z,63.50
2022-12-27T02:50:56.803Z,62.80
2022-12-27T02:53:23.278Z,62.90
2022-12-27T02:55:49.812Z,63.10
2022-12-27T02:58:16.298Z,62.70
2022-12-27T03:00:42.764Z,63.10
2022-12-27T03:03:09.272Z,63.10
2022-12-27T03:05:39.813Z,63.20
2022-12-27T03:08:06.292Z,63.30
2022-12-27T03:10:33.716Z,63.40
2022-12-27T03:13:00.195Z,63.00
2022-12-27T03:15:30.454Z,63.40
2022-12-27T03:17:59.789Z,63.30
2022-12-27T03:20:26.274Z,63.20
2022-12-27T03:22:52.723Z,63.40
2022-12-27T03:25:19.217Z,63.20
2022-12-27T03:27:45.701Z,63.30
2022-12-27T03:30:12.187Z,63.00
2022-12-27T03:32:38.676Z,63.30
2022-12-27T03:35:05.198Z,63.40
2022-12-27T03:37:31.688Z,63.10
2022-12-27T03:40:03.979Z,63.50
2022-12-27T03:42:30.466Z,63.40
2022-12-27T03:44:56.927Z,63.40
2022-12-27T03:47:23.389Z,63.60
2022-12-27T03:49:49.905Z,63.50
2022-12-27T03:52:16.392Z,63.50
2022-12-27T03:54:43.098Z,63.30
2022-12-27T03:57:09.641Z,63.60
2022-12-27T03:59:36.128Z,63.50
2022-12-27T04:02:02.700Z,63.50
2022-12-27T04:04:29.250Z,63.20
2022-12-27T04:06:55.735Z,63.20
2022-12-27T04:09:22.180Z,63.50
2022-12-27T04:11:48.673Z,63.40
2022-12-27T04:14:15.142Z,63.50
2022-12-27T04:16:41.625Z,64.10
2022-12-27T04:19:08.099Z,63.10
2022-12-27T04:21:34.570Z,63.50
2022-12-27T04:24:01.049Z,63.40
2022-12-27T04:26:27.523Z,62.90
2022-12-27T04:28:54.017Z,63.10
2022-12-27T04:31:20.533Z,63.10
2022-12-27T04:33:47.054Z,63.30
2022-12-27T04:36:13.516Z,63.10
2022-12-27T04:38:39.985Z,63.10
2022-12-27T04:41:06.456Z,63.40
2022-12-27T04:43:32.934Z,63.50
2022-12-27T04:45:59.424Z,63.60
2022-12-27T04:48:25.913Z,63.60
2022-12-27T04:50:52.364Z,63.20
2022-12-27T04:53:18.865Z,63.00
2022-12-27T04:55:45.326Z,63.10
2022-12-27T04:58:11.802Z,63.40
2022-12-27T05:00:38.283Z,63.20
2022-12-27T05:03:04.866Z,63.30
2022-12-27T05:05:33.805Z,63.30
2022-12-27T05:08:00.312Z,63.40
2022-12-27T05:10:26.776Z,63.30
2022-12-27T05:12:53.274Z,63.50
2022-12-27T05:15:19.752Z,63.50
2022-12-27T05:17:46.219Z,63.30
2022-12-27T05:20:12.689Z,63.40
2022-12-27T05:22:39.169Z,63.60
2022-12-27T05:25:05.628Z,63.60
2022-12-27T05:27:32.096Z,63.60
2022-12-27T05:29:58.563Z,63.50
2022-12-27T05:32:25.039Z,63.30
2022-12-27T05:34:51.533Z,63.30
2022-12-27T05:37:21.920Z,63.30
2022-12-27T05:39:48.412Z,63.30
2022-12-27T05:42:15.829Z,63.30
2022-12-27T05:44:42.307Z,63.40
2022-12-27T05:47:08.772Z,63.40
2022-12-27T05:49:39.868Z,63.40
2022-12-27T05:52:06.358Z,63.40
2022-12-27T05:54:32.876Z,63.30
2022-12-27T05:56:59.357Z,63.50
2022-12-27T05:59:25.808Z,63.50
2022-12-27T06:01:52.377Z,64.00
2022-12-27T06:04:18.997Z,63.80
2022-12-27T06:06:45.491Z,63.80
2022-12-27T06:09:12.009Z,63.60
2022-12-27T06:11:38.483Z,63.60
2022-12-27T06:14:04.997Z,63.70
2022-12-27T06:16:31.509Z,63.80
2022-12-27T06:18:58.025Z,64.00
2022-12-27T06:21:24.522Z,63.60
2022-12-27T06:23:51.019Z,63.70
2022-12-27T06:26:17.670Z,64.00
2022-12-27T06:28:44.164Z,64.00
2022-12-27T06:31:10.748Z,64.50
2022-12-27T06:33:37.421Z,64.20
2022-12-27T06:36:03.898Z,64.30
2022-12-27T06:38:30.368Z,64.50
2022-12-27T06:40:56.856Z,64.50
2022-12-27T06:43:24.203Z,64.30
2022-12-27T06:45:50.775Z,64.20
2022-12-27T06:48:17.274Z,63.90
2022-12-27T06:50:43.733Z,63.80
2022-12-27T06:53:10.193Z,64.00
2022-12-27T06:55:36.695Z,64.00
2022-12-27T06:58:03.187Z,63.80
2022-12-27T07:00:29.660Z,63.90
2022-12-27T07:02:56.208Z,63.70
2022-12-27T07:05:22.766Z,63.90
2022-12-27T07:07:49.236Z,64.00
2022-12-27T07:10:15.712Z,63.90
2022-12-27T07:12:42.201Z,64.30
2022-12-27T07:15:08.685Z,63.50
2022-12-27T07:17:35.187Z,63.80
2022-12-27T07:20:01.697Z,63.90
2022-12-27T07:22:28.162Z,64.00
2022-12-27T07:24:54.676Z,63.90
2022-12-27T07:27:21.141Z,64.00
2022-12-27T07:29:47.648Z,64.10
2022-12-27T07:32:14.163Z,64.10
2022-12-27T07:34:40.670Z,64.00
2022-12-27T07:37:07.159Z,63.90
2022-12-27T07:39:33.660Z,63.90
2022-12-27T07:42:06.256Z,63.70
2022-12-27T07:44:34.515Z,63.70
2022-12-27T07:47:00.993Z,63.60
2022-12-27T07:49:27.471Z,64.00
2022-12-27T07:51:53.949Z,63.70
2022-12-27T07:54:20.425Z,63.70
2022-12-27T07:56:46.904Z,63.50
2022-12-27T07:59:15.949Z,63.50
2022-12-27T08:01:42.497Z,63.50
2022-12-27T08:04:09.045Z,63.30
2022-12-27T08:06:35.564Z,63.60
2022-12-27T08:09:02.039Z,63.80
2022-12-27T08:11:28.525Z,63.80
2022-12-27T08:13:55.078Z,63.70
2022-12-27T08:16:21.616Z,64.00
2022-12-27T08:18:48.174Z,64.10
2022-12-27T08:21:14.656Z,63.90
2022-12-27T08:23:41.154Z,63.80
2022-12-27T08:26:07.635Z,63.70
2022-12-27T08:28:34.103Z,63.70
2022-12-27T08:31:00.630Z,63.40
2022-12-27T08:33:27.101Z,63.50
2022-12-27T08:35:54.588Z,63.90
2022-12-27T08:38:21.560Z,63.90
2022-12-27T08:40:48.047Z,63.90
2022-12-27T08:43:14.529Z,64.00
2022-12-27T08:45:41.082Z,63.80
2022-12-27T08:48:07.662Z,64.10
2022-12-27T08:50:34.226Z,64.00
2022-12-27T08:53:00.751Z,63.80
2022-12-27T08:55:27.276Z,64.10
2022-12-27T08:57:53.753Z,64.10
2022-12-27T09:00:20.263Z,64.00
2022-12-27T09:02:46.756Z,63.70
2022-12-27T09:05:13.253Z,63.50
2022-12-27T09:07:39.723Z,63.50
2022-12-27T09:10:06.221Z,64.00
2022-12-27T09:12:32.708Z,63.90
2022-12-27T09:14:59.161Z,64.00
2022-12-27T09:17:25.636Z,63.70
2022-12-27T09:19:52.114Z,63.60
2022-12-27T09:22:18.586Z,63.90
2022-12-27T09:24:45.068Z,64.00
2022-12-27T09:27:11.554Z,64.20
2022-12-27T09:29:40.444Z,64.30
2022-12-27T09:32:09.541Z,64.10
2022-12-27T09:34:36.015Z,64.00
2022-12-27T09:37:02.498Z,64.30
2022-12-27T09:39:28.954Z,64.00
2022-12-27T09:44:41.871Z,64.00
2022-12-27T09:47:08.333Z,64.10
2022-12-27T09:49:34.802Z,64.40
2022-12-27T09:52:01.276Z,64.10
2022-12-27T09:54:27.764Z,64.10
2022-12-27T09:57:18.752Z,64.20
2022-12-27T09:59:40.709Z,64.00
2022-12-27T10:02:07.253Z,64.50
2022-12-27T10:04:52.940Z,64.50
2022-12-27T10:07:20.211Z,64.50
2022-12-27T10:09:46.720Z,64.20
2022-12-27T10:12:13.193Z,64.30
2022-12-27T10:14:39.652Z,64.30
2022-12-27T10:17:06.148Z,64.10
2022-12-27T10:19:32.632Z,64.00
2022-12-27T10:21:59.117Z,64.00
2022-12-27T10:24:25.577Z,64.20
2022-12-27T10:26:52.041Z,64.20
2022-12-27T10:29:18.517Z,64.20
2022-12-27T10:31:45.042Z,64.40
2022-12-27T10:34:11.617Z,64.50
2022-12-27T10:36:38.141Z,64.40
2022-12-27T10:39:04.628Z,64.50
2022-12-27T10:41:31.116Z,64.70
2022-12-27T10:43:57.575Z,64.80
2022-12-27T10:46:28.987Z,65.10
2022-12-27T10:51:45.221Z,64.80
2022-12-27T10:54:11.695Z,65.00
2022-12-27T10:56:38.171Z,64.40
2022-12-27T10:59:04.665Z,64.30
2022-12-27T11:01:31.366Z,64.60
2022-12-27T11:03:57.962Z,64.50
2022-12-27T11:06:24.449Z,64.60
2022-12-27T11:08:50.914Z,64.90
2022-12-27T11:11:17.393Z,64.80
2022-12-27T11:13:43.887Z,64.50
2022-12-27T11:16:10.390Z,64.50
2022-12-27T11:18:36.876Z,64.50
2022-12-27T11:21:04.100Z,64.50
2022-12-27T11:23:30.594Z,64.40
2022-12-27T11:25:57.068Z,64.70
2022-12-27T11:28:23.598Z,64.90
2022-12-27T11:30:50.078Z,64.60
2022-12-27T11:33:24.936Z,64.60
2022-12-27T11:35:51.748Z,64.60
2022-12-27T11:38:22.160Z,64.90
2022-12-27T11:40:52.304Z,64.70
2022-12-27T11:43:18.813Z,65.00
2022-12-27T11:45:45.290Z,64.80
2022-12-27T11:48:11.784Z,64.80
2022-12-27T11:50:38.262Z,65.10
2022-12-27T11:53:04.743Z,65.10
2022-12-27T11:55:31.224Z,64.70
2022-12-27T11:57:57.711Z,64.50
2022-12-27T12:00:24.178Z,64.50
2022-12-27T12:02:50.749Z,64.70
2022-12-27T12:05:17.268Z,65.30
2022-12-27T12:07:43.743Z,65.50
2022-12-27T12:10:10.213Z,65.40
2022-12-27T12:12:36.697Z,64.90
2022-12-27T12:15:03.170Z,65.00
2022-12-27T12:17:35.591Z,65.20
2022-12-27T12:20:02.523Z,64.90
2022-12-27T12:22:34.263Z,64.90
2022-12-27T12:25:00.754Z,65.10
2022-12-27T12:27:27.218Z,65.00
2022-12-27T12:29:54.299Z,65.10
2022-12-27T12:32:20.767Z,65.10
2022-12-27T12:34:47.243Z,65.20
2022-12-27T12:37:13.717Z,65.10
2022-12-27T12:39:40.193Z,64.90
2022-12-27T12:42:06.672Z,65.40
2022-12-27T12:44:37.923Z,65.40
2022-12-27T12:47:07.697Z,65.70
2022-12-27T12:49:34.176Z,65.50
2022-12-27T12:52:00.671Z,65.10
2022-12-27T12:54:27.159Z,65.10
2022-12-27T12:56:53.659Z,65.10
2022-12-27T12:59:20.114Z,64.70
2022-12-27T13:01:50.747Z,65.20
2022-12-27T13:04:17.693Z,65.20
2022-12-27T13:06:44.201Z,64.90
2022-12-27T13:09:10.678Z,65.40
2022-12-27T13:11:37.168Z,65.20
2022-12-27T13:14:03.645Z,65.30
2022-12-27T13:16:30.242Z,65.10
2022-12-27T13:18:56.751Z,65.00
2022-12-27T13:21:23.273Z,64.90
2022-12-27T13:23:49.749Z,64.80
2022-12-27T13:26:16.235Z,65.20
2022-12-27T13:28:42.689Z,65.10
2022-12-27T13:31:09.209Z,65.00
2022-12-27T13:33:40.453Z,65.10
2022-12-27T13:36:06.949Z,65.40
2022-12-27T13:38:33.435Z,65.40
2022-12-27T13:40:59.908Z,65.10
2022-12-27T13:43:28.212Z,65.30
2022-12-27T13:45:54.717Z,64.90
2022-12-27T13:48:21.217Z,64.90
2022-12-27T13:50:47.689Z,65.20
2022-12-27T13:53:14.170Z,65.50
2022-12-27T13:55:40.652Z,65.60
2022-12-27T13:58:07.122Z,66.40
2022-12-27T14:00:33.591Z,65.20
2022-12-27T14:03:00.203Z,65.00
2022-12-27T14:05:26.762Z,65.00
2022-12-27T14:07:53.243Z,65.20
2022-12-27T14:10:19.744Z,65.60
2022-12-27T14:12:46.203Z,65.50
2022-12-27T14:15:12.710Z,65.40
2022-12-27T14:17:40.268Z,65.30
2022-12-27T14:20:06.781Z,65.10
2022-12-27T14:22:33.285Z,65.20
2022-12-27T14:24:59.756Z,65.50
2022-12-27T14:27:26.219Z,65.40
2022-12-27T14:29:52.689Z,65.30
2022-12-27T14:32:19.174Z,65.40
2022-12-27T14:34:45.629Z,65.50
2022-12-27T14:37:12.140Z,65.30
2022-12-27T14:39:38.602Z,64.90
2022-12-27T14:42:05.081Z,65.00
2022-12-27T14:44:31.545Z,64.90
2022-12-27T14:46:58.029Z,65.20
2022-12-27T14:49:24.512Z,65.30
2022-12-27T14:52:00.389Z,65.60
2022-12-27T14:54:28.246Z,65.90
2022-12-27T14:56:54.716Z,66.00
2022-12-27T14:59:21.195Z,66.00
2022-12-27T15:01:47.807Z,66.10
2022-12-27T15:04:14.357Z,65.80
2022-12-27T15:06:40.837Z,65.50
2022-12-27T15:09:07.751Z,65.60
2022-12-27T15:11:34.287Z,65.50
2022-12-27T15:14:00.773Z,65.60
2022-12-27T15:16:27.263Z,65.10
2022-12-27T15:18:58.520Z,65.30
2022-12-27T15:21:24.993Z,65.60
2022-12-27T15:23:51.471Z,65.40
2022-12-27T15:26:17.924Z,65.50
2022-12-27T15:28:46.301Z,65.60
2022-12-27T15:31:12.821Z,65.40
2022-12-27T15:33:39.317Z,65.50
2022-12-27T15:36:05.808Z,65.80
2022-12-27T15:38:32.285Z,65.80
2022-12-27T15:40:58.747Z,65.80
2022-12-27T15:43:25.215Z,65.70
2022-12-27T15:45:51.705Z,65.40
2022-12-27T15:48:18.167Z,65.50
2022-12-27T15:50:44.643Z,65.40
2022-12-27T15:53:11.116Z,65.50
2022-12-27T15:55:37.599Z,65.30
2022-12-27T15:58:04.056Z,65.00
2022-12-27T16:00:33.979Z,65.40
2022-12-27T16:03:01.246Z,65.20
2022-12-27T16:05:27.864Z,65.30
2022-12-27T16:07:54.339Z,65.60
2022-12-27T16:10:20.827Z,65.20
2022-12-27T16:12:47.293Z,65.00
2022-12-27T16:15:13.749Z,65.10
2022-12-27T16:17:40.232Z,65.10
2022-12-27T16:20:06.735Z,65.50
2022-12-27T16:22:33.221Z,65.20
2022-12-27T16:24:59.732Z,65.30
2022-12-27T16:27:26.231Z,65.30
2022-12-27T16:29:58.562Z,65.00
2022-12-27T16:32:25.072Z,65.30
2022-12-27T16:34:51.579Z,65.20
2022-12-27T16:37:18.072Z,65.20
2022-12-27T16:39:44.545Z,64.90
2022-12-27T16:42:11.024Z,65.10
2022-12-27T16:44:38.577Z,65.40
2022-12-27T16:47:05.260Z,65.00
2022-12-27T16:49:31.772Z,64.90
2022-12-27T16:51:58.234Z,64.70
2022-12-27T16:54:24.766Z,65.00
2022-12-27T16:56:51.231Z,65.00
2022-12-27T16:59:17.698Z,64.70
2022-12-27T17:01:44.275Z,64.80
2022-12-27T17:04:10.762Z,64.80
2022-12-27T17:06:37.243Z,64.80
2022-12-27T17:09:03.691Z,64.90
2022-12-27T17:11:30.173Z,64.80
2022-12-27T17:13:56.636Z,64.80
2022-12-27T17:16:23.159Z,64.80
2022-12-27T17:18:49.653Z,64.80
2022-12-27T17:21:16.113Z,64.70
2022-12-27T17:23:42.580Z,64.80
2022-12-27T17:26:09.067Z,64.60
2022-12-27T17:28:35.567Z,64.80
2022-12-27T17:31:02.044Z,64.70
2022-12-27T17:33:28.541Z,64.50
2022-12-27T17:35:58.503Z,64.30
2022-12-27T17:38:24.971Z,64.80
2022-12-27T17:40:51.451Z,64.50
2022-12-27T17:43:17.946Z,64.50
2022-12-27T17:45:44.464Z,64.40
2022-12-27T17:48:10.967Z,64.30
2022-12-27T17:50:37.504Z,63.90
2022-12-27T17:53:04.000Z,64.60
2022-12-27T17:55:30.479Z,64.60
2022-12-27T17:57:56.948Z,64.40
2022-12-27T18:00:23.452Z,64.10
2022-12-27T18:02:49.981Z,64.20
2022-12-27T18:05:16.549Z,64.10
2022-12-27T18:07:43.029Z,64.40
2022-12-27T18:10:09.527Z,64.20
2022-12-27T18:12:35.993Z,64.20
2022-12-27T18:15:02.464Z,64.10
2022-12-27T18:17:29.531Z,63.70
2022-12-27T18:19:56.120Z,63.60
2022-12-27T18:22:22.651Z,63.70
2022-12-27T18:24:49.139Z,63.80
2022-12-27T18:27:15.616Z,63.70
2022-12-27T18:29:42.102Z,63.70
2022-12-27T18:32:08.632Z,63.70
2022-12-27T18:34:35.163Z,63.70
2022-12-27T18:37:01.633Z,63.70
2022-12-27T18:39:28.102Z,63.80
2022-12-27T18:41:54.606Z,63.70
2022-12-27T18:44:26.729Z,63.60
2022-12-27T18:46:54.017Z,64.10
2022-12-27T18:49:21.565Z,64.10
2022-12-27T18:51:48.040Z,63.90
2022-12-27T18:54:14.585Z,63.80
2022-12-27T18:56:41.078Z,63.90
2022-12-27T18:59:07.531Z,64.00
2022-12-27T19:01:34.109Z,63.70
2022-12-27T19:04:00.644Z,63.70
2022-12-27T19:06:28.504Z,63.80
2022-12-27T19:08:55.150Z,63.80
2022-12-27T19:11:22.527Z,63.80
2022-12-27T19:13:48.992Z,63.70
2022-12-27T19:16:15.534Z,63.50
2022-12-27T19:18:42.037Z,63.50
2022-12-27T19:21:08.519Z,63.70
2022-12-27T19:23:34.995Z,63.90
2022-12-27T19:26:01.498Z,63.20
2022-12-27T19:28:27.961Z,63.50
2022-12-27T19:30:58.551Z,63.60
2022-12-27T19:33:25.040Z,63.00
2022-12-27T19:35:51.519Z,63.70
2022-12-27T19:38:17.987Z,63.40
2022-12-27T19:40:44.450Z,63.10
2022-12-27T19:43:10.920Z,63.00
2022-12-27T19:45:37.419Z,63.30
2022-12-27T19:48:04.500Z,63.20
2022-12-27T19:50:30.964Z,63.00
2022-12-27T19:52:57.425Z,63.40
2022-12-27T19:55:23.914Z,63.20
2022-12-27T19:57:50.408Z,63.10
2022-12-27T20:00:16.933Z,63.00
2022-12-27T20:02:43.511Z,63.10
2022-12-27T20:05:10.138Z,62.80
2022-12-27T20:07:36.632Z,62.70
2022-12-27T20:10:03.124Z,63.00
2022-12-27T20:12:29.610Z,62.90
2022-12-27T20:14:56.106Z,62.90
2022-12-27T20:17:22.625Z,62.70
2022-12-27T20:19:49.103Z,62.90
2022-12-27T20:22:15.584Z,62.70
2022-12-27T20:24:42.055Z,62.90
2022-12-27T20:27:10.593Z,62.40
2022-12-27T20:29:37.069Z,62.20
2022-12-27T20:32:03.654Z,62.90
2022-12-27T20:34:30.154Z,63.40
2022-12-27T20:36:56.612Z,63.10
2022-12-27T20:39:23.086Z,62.80
2022-12-27T20:41:49.562Z,62.80
2022-12-27T20:44:16.058Z,62.50
2022-12-27T20:46:46.590Z,62.50
2022-12-27T20:49:22.629Z,63.00
2022-12-27T20:51:49.133Z,63.00
2022-12-27T20:54:15.658Z,62.70
2022-12-27T20:56:42.148Z,62.50
2022-12-27T20:59:08.640Z,62.40
2022-12-27T21:01:35.202Z,62.70
2022-12-27T21:04:03.000Z,62.50
2022-12-27T21:06:29.476Z,62.50
2022-12-27T21:08:58.668Z,62.90
2022-12-27T21:11:25.178Z,62.70
2022-12-27T21:13:51.664Z,62.60
2022-12-27T21:16:18.243Z,62.40
2022-12-27T21:18:44.798Z,62.10
2022-12-27T21:21:11.289Z,62.10
2022-12-27T21:23:37.762Z,62.40
2022-12-27T21:26:04.227Z,62.10
2022-12-27T21:28:30.711Z,62.40
2022-12-27T21:30:57.192Z,62.40
2022-12-27T21:33:23.691Z,62.40
2022-12-27T21:35:50.179Z,62.30
2022-12-27T21:38:16.659Z,62.30
2022-12-27T21:40:43.109Z,62.20
2022-12-27T21:43:09.612Z,62.20
2022-12-27T21:45:40.721Z,62.00
2022-12-27T21:48:07.197Z,62.20
2022-12-27T21:50:37.250Z,61.90
2022-12-27T21:53:04.035Z,61.40
2022-12-27T21:55:30.521Z,61.70
2022-12-27T21:57:56.999Z,61.90
2022-12-27T22:00:23.480Z,62.10
2022-12-27T22:02:50.079Z,61.90
2022-12-27T22:05:16.684Z,61.90
2022-12-27T22:07:43.165Z,62.00
2022-12-27T22:10:09.653Z,61.70
2022-12-27T22:12:36.124Z,62.20
2022-12-27T22:15:02.617Z,62.10
2022-12-27T22:17:29.081Z,61.60
2022-12-27T22:19:55.565Z,62.00
2022-12-27T22:22:28.805Z,61.70
2022-12-27T22:24:55.276Z,61.60
2022-12-27T22:27:21.730Z,61.70
2022-12-27T22:29:52.691Z,61.80
2022-12-27T22:32:19.211Z,61.80
2022-12-27T22:34:45.687Z,61.50
2022-12-27T22:37:12.177Z,61.70
2022-12-27T22:39:38.673Z,61.70
2022-12-27T22:42:10.729Z,62.20
2022-12-27T22:44:37.233Z,62.00
2022-12-27T22:49:50.170Z,61.80
2022-12-27T22:52:16.633Z,61.60
2022-12-27T22:55:04.691Z,62.00
2022-12-27T22:57:29.533Z,62.00
2022-12-27T22:59:56.015Z,61.60
2022-12-27T23:02:22.595Z,62.50
2022-12-27T23:04:49.243Z,61.50
2022-12-27T23:07:15.732Z,61.40
2022-12-27T23:09:43.637Z,61.50
2022-12-27T23:12:10.298Z,61.50
2022-12-27T23:14:36.766Z,61.50
2022-12-27T23:17:03.240Z,61.50
2022-12-27T23:19:29.712Z,61.40
2022-12-27T23:21:56.225Z,61.40
2022-12-27T23:24:22.712Z,61.20
2022-12-27T23:26:49.190Z,61.30
2022-12-27T23:29:15.673Z,61.20
2022-12-27T23:31:54.118Z,61.50
2022-12-27T23:34:27.333Z,61.50
2022-12-27T23:36:54.933Z,61.30
2022-12-27T23:39:21.401Z,61.50
2022-12-27T23:41:47.873Z,61.90
2022-12-27T23:44:14.340Z,61.70
2022-12-27T23:46:40.851Z,61.40
2022-12-27T23:49:07.369Z,61.20
2022-12-27T23:51:33.874Z,61.60
2022-12-27T23:54:00.346Z,61.20
2022-12-27T23:56:26.807Z,60.90
2022-12-27T23:58:53.277Z,61.20
